Aérodrome :
LOGIN :

S'inscrire | Disclaimer

   EN    FR    IT 

 










Légende :    VFR   VFR Marginal   IFR   IFR Intensif   IFR Très Intensif
Visi : 
Plafond : 
>= 8 km
>= 3000ft
5 à 8 km
1000 à 3000 ft
1500m à 5 km
500 à 1000 ft
800 à 1500m
200 à 500 ft
< 800m
< 200 ft
Symboles :   Orages  Brouillard  Fortes neiges  Fortes précipitations  Vent > 20 kt
SIGMETs :   Divers  Orages  Givrage  Turbulence  Onde Orograph.  Cendres Volcan.






- Altitude de l'aérodrome : 56 ft
- Code IATA : ODE


EKOD - Odense

DERNIER METAR :
  • 231420Z 25007KT 170V310 9999 FEW012 BKN032 OVC039 16/14 Q1013

METARs EXPIRÉS :
  • 231350Z 27008KT 180V310 9000 -RA FEW006 BKN017 OVC030 15/15 Q1013
  • 231320Z VRB09KT 9000 -RA FEW014 BKN042 OVC049 15/14 Q1013
  • 231250Z VRB11KT 9999 -RA FEW014 BKN042 OVC049 15/14 Q1012
  • 231220Z VRB10KT 7000 -RA FEW004 BKN013 OVC025 15/14 Q1012
  • 231150Z 25002KT 7000 -RA FEW005 BKN007 OVC011 15/14 Q1012
  • 231120Z 21001KT 7000 -RA FEW004 BKN022 OVC025 15/14 Q1012
  • 231050Z 20003KT 6000 -RA FEW003 BKN022 OVC026 15/14 Q1012
  • 231020Z 00000KT 4000 -RA FEW003 BKN022 OVC036 14/14 Q1012
  • 230950Z 23002KT 4000 -RA FEW002 BKN019 OVC025 14/14 Q1011

TAF TAF EKOD
Valide du 23 à 12h jusqu'au 23 à 16h UTC


231114Z 2312/2316 24007KT 3000 RADZ BR BKN006
TEMPO 2312/2313 8000 -RA SCT008 BKN015
BECMG 2313/2315 9999 NSW BKN015
TEMPO 2315/2316 BKN012



MET'MAP, la Météo Aéronautique d'un coup d'oeil ! - Copyright ORBIFLY Décembre 2007 - Disclaimer

ORBIFLY MET'MAP TEAM :

Programmation & Développement : Alexandra Zaïnal
Sur une idée originale de : Baudouin d'Aumeries
Soutien technique & logistique : Manuel Goepfert
Assistance : Marc-Olivier Méhu




SOURCES & CREDITS :

   NOAA